Time;durP1;ratioP1;P1;durP2;ratioP2;P2;SDS_P1;SDS_P2;PMS_P1;PMS_P2;Temp;Humidity;BMP_temperature;BMP_pressure;BME280_temperature;BME280_humidity;BME280_pressure;Samples;Min_cycle;Max_cycle;Signal;HPM_P1;HPM_P2
2021/10/01 00:01:23;;;;;;;4.83;1.90;;;;;;;;;;4935290;28;25092;-74
2021/10/01 00:03:48;;;;;;;4.10;1.27;;;;;;;;;;4939464;28;20179;-74
2021/10/01 00:06:14;;;;;;;5.53;1.80;;;;;;;;;;4931938;28;20541;-74
2021/10/01 00:08:39;;;;;;;5.03;1.70;;;;;;;;;;4930360;28;25070;-74
2021/10/01 00:11:04;;;;;;;5.03;1.37;;;;;;;;;;4944517;28;20533;-74
2021/10/01 00:13:30;;;;;;;6.27;2.10;;;;;;;;;;4939171;28;20177;-74
2021/10/01 00:15:55;;;;;;;2.50;1.30;;;;;;;;;;4938580;28;20266;-75
2021/10/01 00:18:21;;;;;;;5.30;1.27;;;;;;;;;;4939678;28;20465;-75
2021/10/01 00:20:46;;;;;;;5.50;1.27;;;;;;;;;;4937641;28;20184;-74
2021/10/01 00:23:11;;;;;;;3.73;1.20;;;;;;;;;;4935512;28;20187;-74
2021/10/01 00:25:37;;;;;;;5.60;1.23;;;;;;;;;;4934279;28;20604;-74
2021/10/01 00:28:02;;;;;;;5.63;1.40;;;;;;;;;;4937655;28;20325;-74
2021/10/01 00:30:28;;;;;;;8.20;1.57;;;;;;;;;;4933835;28;25054;-74
2021/10/01 00:32:53;;;;;;;4.50;1.50;;;;;;;;;;4938180;28;20182;-75
2021/10/01 00:35:19;;;;;;;5.63;1.50;;;;;;;;;;4939377;28;20176;-75
2021/10/01 00:37:45;;;;;;;3.83;1.63;;;;;;;;;;4938268;28;20248;-75
2021/10/01 00:40:10;;;;;;;3.53;1.70;;;;;;;;;;4940159;28;20451;-75
2021/10/01 00:42:35;;;;;;;3.20;1.30;;;;;;;;;;4946370;28;20176;-75
2021/10/01 00:45:01;;;;;;;5.63;1.63;;;;;;;;;;4938238;28;20598;-75
2021/10/01 00:47:26;;;;;;;5.43;1.90;;;;;;;;;;4936859;28;20216;-74
2021/10/01 00:49:51;;;;;;;5.87;1.20;;;;;;;;;;4935359;28;20188;-74
2021/10/01 00:52:18;;;;;;;4.50;1.53;;;;;;;;;;4937837;28;20724;-75
2021/10/01 00:54:43;;;;;;;9.43;1.60;;;;;;;;;;4937609;28;20686;-74
2021/10/01 00:57:08;;;;;;;3.90;1.63;;;;;;;;;;4932052;28;20541;-74
2021/10/01 00:59:34;;;;;;;5.90;1.90;;;;;;;;;;4936517;28;20195;-74
2021/10/01 01:01:59;;;;;;;4.77;2.00;;;;;;;;;;4934319;28;20233;-75
2021/10/01 01:04:24;;;;;;;4.80;1.77;;;;;;;;;;4936219;28;20184;-74
2021/10/01 01:07:05;;;;;;;7.77;1.70;;;;;;;;;;4938206;28;20218;-74
2021/10/01 01:09:30;;;;;;;6.40;1.30;;;;;;;;;;4937220;28;20175;-75
2021/10/01 01:11:55;;;;;;;3.37;1.40;;;;;;;;;;4938726;28;20959;-75
2021/10/01 01:14:26;;;;;;;5.23;1.50;;;;;;;;;;4933458;28;20701;-74
2021/10/01 01:16:52;;;;;;;6.80;1.60;;;;;;;;;;4932951;28;25055;-74
2021/10/01 01:19:36;;;;;;;6.37;1.97;;;;;;;;;;4933013;28;20518;-75
2021/10/01 01:22:04;;;;;;;7.83;1.50;;;;;;;;;;4933767;28;20447;-75
2021/10/01 01:24:32;;;;;;;3.43;1.37;;;;;;;;;;4936345;28;20434;-75
2021/10/01 01:27:10;;;;;;;8.40;1.70;;;;;;;;;;4937291;28;20478;-74
2021/10/01 01:29:35;;;;;;;4.70;1.33;;;;;;;;;;4936162;28;20443;-74
2021/10/01 01:32:01;;;;;;;7.17;1.70;;;;;;;;;;4936554;28;20856;-75
2021/10/01 01:34:37;;;;;;;8.60;1.73;;;;;;;;;;4931102;28;20179;-74
2021/10/01 01:37:07;;;;;;;4.10;1.37;;;;;;;;;;4937146;28;20522;-75
2021/10/01 01:39:33;;;;;;;6.37;1.37;;;;;;;;;;4936352;28;20506;-75
2021/10/01 01:41:59;;;;;;;3.70;1.40;;;;;;;;;;4938331;28;20821;-75
2021/10/01 01:44:25;;;;;;;4.20;1.63;;;;;;;;;;4943708;28;20474;-75
2021/10/01 01:46:51;;;;;;;4.53;1.40;;;;;;;;;;4933082;28;20218;-75
2021/10/01 01:49:16;;;;;;;5.70;1.80;;;;;;;;;;4940158;28;20443;-74
2021/10/01 01:51:41;;;;;;;4.07;1.60;;;;;;;;;;4939217;28;20196;-75
2021/10/01 01:54:07;;;;;;;7.47;1.63;;;;;;;;;;4936045;28;20176;-75
2021/10/01 01:56:33;;;;;;;10.50;1.40;;;;;;;;;;4934622;28;20267;-74
2021/10/01 01:58:59;;;;;;;4.03;1.40;;;;;;;;;;4936371;28;20954;-74
2021/10/01 02:01:26;;;;;;;5.40;1.50;;;;;;;;;;4930445;28;20688;-75
2021/10/01 02:03:51;;;;;;;5.10;1.57;;;;;;;;;;4932259;28;20451;-74
2021/10/01 02:06:17;;;;;;;5.80;1.83;;;;;;;;;;4938565;28;20551;-74
2021/10/01 02:08:42;;;;;;;3.57;1.20;;;;;;;;;;4942609;28;20194;-75
2021/10/01 02:11:08;;;;;;;5.67;1.23;;;;;;;;;;4935946;28;20187;-75
2021/10/01 02:13:34;;;;;;;4.27;1.47;;;;;;;;;;4935774;28;20187;-74
2021/10/01 02:16:00;;;;;;;4.40;1.37;;;;;;;;;;4935279;28;20222;-74
2021/10/01 02:18:26;;;;;;;8.13;1.90;;;;;;;;;;4935305;28;20509;-74
2021/10/01 02:20:52;;;;;;;3.50;1.50;;;;;;;;;;4934420;28;20453;-74
2021/10/01 02:23:18;;;;;;;4.57;1.50;;;;;;;;;;4936239;28;20455;-75
2021/10/01 02:28:39;;;;;;;3.77;1.47;;;;;;;;;;4935440;28;20695;-75
2021/10/01 02:31:06;;;;;;;5.83;1.80;;;;;;;;;;4935496;28;20438;-75
2021/10/01 02:33:50;;;;;;;7.30;1.70;;;;;;;;;;4933323;28;20430;-75
2021/10/01 02:36:15;;;;;;;5.17;1.30;;;;;;;;;;4930949;28;20443;-74
2021/10/01 02:38:41;;;;;;;9.90;1.50;;;;;;;;;;4937133;28;20446;-74
2021/10/01 02:41:06;;;;;;;8.63;1.37;;;;;;;;;;4936920;28;20191;-75
2021/10/01 02:43:31;;;;;;;7.30;1.60;;;;;;;;;;4934098;28;20175;-75
2021/10/01 02:45:57;;;;;;;5.40;1.87;;;;;;;;;;4934867;28;20208;-76
2021/10/01 02:48:22;;;;;;;4.37;1.10;;;;;;;;;;4929050;28;20203;-76
2021/10/01 02:50:51;;;;;;;6.80;1.67;;;;;;;;;;4933909;28;20682;-74
2021/10/01 02:53:17;;;;;;;4.93;1.37;;;;;;;;;;4931237;28;20216;-75
2021/10/01 02:55:47;;;;;;;3.27;1.40;;;;;;;;;;4932891;28;20442;-75
2021/10/01 02:58:12;;;;;;;6.63;1.93;;;;;;;;;;4934448;28;20494;-73
2021/10/01 03:00:37;;;;;;;3.70;1.57;;;;;;;;;;4932982;28;20473;-74
2021/10/01 03:03:05;;;;;;;4.30;1.50;;;;;;;;;;4935471;28;20186;-75
2021/10/01 03:05:30;;;;;;;8.17;1.80;;;;;;;;;;4933633;28;20230;-74
2021/10/01 03:07:57;;;;;;;7.37;1.60;;;;;;;;;;4934158;28;20471;-74
2021/10/01 03:10:23;;;;;;;7.30;1.57;;;;;;;;;;4933645;28;20180;-74
2021/10/01 03:12:49;;;;;;;3.33;1.47;;;;;;;;;;4933105;28;20952;-75
2021/10/01 03:15:15;;;;;;;6.10;1.70;;;;;;;;;;4935342;28;20449;-75
2021/10/01 03:17:41;;;;;;;5.60;2.80;;;;;;;;;;4933096;28;20690;-74
2021/10/01 03:20:07;;;;;;;5.07;1.50;;;;;;;;;;4934107;28;20438;-75
2021/10/01 03:22:33;;;;;;;5.60;1.63;;;;;;;;;;4941476;28;20554;-75
2021/10/01 03:25:00;;;;;;;8.70;1.60;;;;;;;;;;4935814;28;20539;-75
2021/10/01 03:27:30;;;;;;;12.23;1.93;;;;;;;;;;4936052;28;20215;-74
2021/10/01 03:29:57;;;;;;;2.53;1.60;;;;;;;;;;4936057;28;20443;-76
2021/10/01 03:32:22;;;;;;;4.70;1.57;;;;;;;;;;4935768;28;20510;-75
2021/10/01 03:34:47;;;;;;;7.00;1.60;;;;;;;;;;4934775;28;20437;-75
2021/10/01 03:37:13;;;;;;;4.30;1.30;;;;;;;;;;4931723;28;20212;-75
2021/10/01 03:39:38;;;;;;;12.20;1.93;;;;;;;;;;4940196;28;20195;-74
2021/10/01 03:42:05;;;;;;;11.07;2.40;;;;;;;;;;4941965;28;20212;-75
2021/10/01 03:44:30;;;;;;;6.53;1.40;;;;;;;;;;4936562;28;20242;-75
2021/10/01 03:46:56;;;;;;;2.50;1.27;;;;;;;;;;4940697;28;20498;-75
2021/10/01 03:49:21;;;;;;;3.63;1.30;;;;;;;;;;4936232;28;20184;-75
2021/10/01 03:51:46;;;;;;;4.20;1.30;;;;;;;;;;4938665;28;20195;-75
2021/10/01 03:54:12;;;;;;;8.07;1.53;;;;;;;;;;4939192;28;20282;-75
2021/10/01 03:56:37;;;;;;;2.93;1.40;;;;;;;;;;4934806;28;20203;-74
2021/10/01 03:59:02;;;;;;;4.77;1.53;;;;;;;;;;4939089;28;20179;-74
2021/10/01 04:01:27;;;;;;;4.30;1.63;;;;;;;;;;4938803;28;20198;-75
2021/10/01 04:03:53;;;;;;;7.23;1.93;;;;;;;;;;4936857;28;20775;-74
2021/10/01 04:06:18;;;;;;;7.73;1.73;;;;;;;;;;4939081;28;20214;-74
2021/10/01 04:08:46;;;;;;;7.13;1.80;;;;;;;;;;4935656;28;20246;-75
2021/10/01 04:11:11;;;;;;;6.50;1.67;;;;;;;;;;4936194;28;20580;-75
2021/10/01 04:13:36;;;;;;;4.33;1.60;;;;;;;;;;4935296;28;20462;-75
2021/10/01 04:16:02;;;;;;;6.90;1.70;;;;;;;;;;4936421;28;20187;-74
2021/10/01 04:18:27;;;;;;;8.43;1.83;;;;;;;;;;4936448;28;20311;-74
2021/10/01 04:20:54;;;;;;;6.70;1.70;;;;;;;;;;4937037;28;20191;-75
2021/10/01 04:23:20;;;;;;;1.90;1.10;;;;;;;;;;4934455;28;20200;-75
2021/10/01 04:25:45;;;;;;;3.63;1.30;;;;;;;;;;4935226;28;20448;-74
2021/10/01 04:28:10;;;;;;;3.53;1.40;;;;;;;;;;4935510;28;20220;-74
2021/10/01 04:30:44;;;;;;;3.13;1.87;;;;;;;;;;4937255;28;20552;-75
2021/10/01 04:33:28;;;;;;;2.83;1.37;;;;;;;;;;4935886;28;20171;-75
2021/10/01 04:35:54;;;;;;;2.83;1.30;;;;;;;;;;4936662;28;20446;-75
2021/10/01 04:38:19;;;;;;;3.00;1.33;;;;;;;;;;4939986;28;20451;-75
2021/10/01 04:40:47;;;;;;;4.40;1.37;;;;;;;;;;4939852;28;20203;-76
2021/10/01 04:43:12;;;;;;;3.40;1.07;;;;;;;;;;4940258;28;20527;-75
2021/10/01 04:45:38;;;;;;;3.33;1.60;;;;;;;;;;4937712;28;20492;-75
2021/10/01 04:48:04;;;;;;;6.67;1.30;;;;;;;;;;4935443;28;20206;-76
2021/10/01 04:50:30;;;;;;;5.67;1.40;;;;;;;;;;4938070;28;20188;-75
2021/10/01 04:52:55;;;;;;;6.83;1.90;;;;;;;;;;4938703;28;25173;-75
2021/10/01 04:55:20;;;;;;;9.23;1.47;;;;;;;;;;4939710;29;20175;-75
2021/10/01 04:57:46;;;;;;;5.77;1.90;;;;;;;;;;4937129;28;20243;-76
2021/10/01 05:00:11;;;;;;;5.13;1.30;;;;;;;;;;4939929;28;20224;-75
2021/10/01 05:02:36;;;;;;;2.80;1.30;;;;;;;;;;4934475;28;20308;-76
2021/10/01 05:05:03;;;;;;;2.67;1.10;;;;;;;;;;4940434;28;20242;-75
2021/10/01 05:07:28;;;;;;;4.47;1.30;;;;;;;;;;4937536;28;20279;-76
2021/10/01 05:09:53;;;;;;;4.03;1.50;;;;;;;;;;4938250;28;20441;-75
2021/10/01 05:12:19;;;;;;;5.83;2.33;;;;;;;;;;4937967;28;20184;-75
2021/10/01 05:14:44;;;;;;;6.67;1.67;;;;;;;;;;4937528;28;20178;-76
2021/10/01 05:17:09;;;;;;;4.87;1.60;;;;;;;;;;4934182;28;20209;-75
2021/10/01 05:19:35;;;;;;;6.30;1.30;;;;;;;;;;4936075;28;20562;-75
2021/10/01 05:22:01;;;;;;;4.13;1.20;;;;;;;;;;4938313;28;20191;-76
2021/10/01 05:24:26;;;;;;;5.53;1.77;;;;;;;;;;4936472;28;20535;-75
2021/10/01 05:26:52;;;;;;;5.00;1.43;;;;;;;;;;4933983;28;20481;-75
2021/10/01 05:29:17;;;;;;;4.80;1.57;;;;;;;;;;4937495;28;21272;-75
2021/10/01 05:31:42;;;;;;;4.80;1.50;;;;;;;;;;4936128;28;20195;-76
2021/10/01 05:34:07;;;;;;;4.00;1.00;;;;;;;;;;4934176;28;20188;-76
2021/10/01 05:36:33;;;;;;;3.23;1.33;;;;;;;;;;4929302;28;20206;-78
2021/10/01 05:38:59;;;;;;;4.90;1.50;;;;;;;;;;4929398;28;20226;-76
2021/10/01 05:41:24;;;;;;;4.67;1.30;;;;;;;;;;4931298;28;20184;-75
2021/10/01 05:43:49;;;;;;;4.13;1.20;;;;;;;;;;4930904;28;20222;-76
2021/10/01 05:46:16;;;;;;;3.47;1.30;;;;;;;;;;4933731;28;20644;-76
2021/10/01 05:48:45;;;;;;;2.03;1.20;;;;;;;;;;4934207;28;20211;-76
2021/10/01 05:51:12;;;;;;;4.43;1.10;;;;;;;;;;4937183;28;20442;-76
2021/10/01 05:56:09;;;;;;;9.93;1.40;;;;;;;;;;4936442;28;21199;-76
2021/10/01 05:58:36;;;;;;;4.53;1.40;;;;;;;;;;4936156;28;20444;-77
2021/10/01 06:01:01;;;;;;;6.77;1.40;;;;;;;;;;4935362;28;20453;-76
2021/10/01 06:03:27;;;;;;;4.50;1.70;;;;;;;;;;4936050;28;20521;-77
2021/10/01 06:05:52;;;;;;;3.50;1.40;;;;;;;;;;4936736;28;20187;-76
2021/10/01 06:08:17;;;;;;;5.20;1.20;;;;;;;;;;4936067;28;20282;-77
2021/10/01 06:10:42;;;;;;;3.57;1.50;;;;;;;;;;4939121;28;25115;-75
2021/10/01 06:13:08;;;;;;;2.57;1.10;;;;;;;;;;4934411;28;20207;-75
2021/10/01 06:15:33;;;;;;;2.73;1.03;;;;;;;;;;4938148;28;20202;-76
2021/10/01 06:17:58;;;;;;;11.13;1.60;;;;;;;;;;4932726;28;20210;-76
2021/10/01 06:20:24;;;;;;;3.57;1.10;;;;;;;;;;4937123;28;20234;-76
2021/10/01 06:22:49;;;;;;;4.97;1.03;;;;;;;;;;4934173;28;20179;-76
2021/10/01 06:25:14;;;;;;;3.03;1.10;;;;;;;;;;4934373;28;20192;-75
2021/10/01 06:27:40;;;;;;;3.93;1.50;;;;;;;;;;4938002;28;20237;-76
2021/10/01 06:30:06;;;;;;;4.80;1.50;;;;;;;;;;4943567;28;20223;-76
2021/10/01 06:32:35;;;;;;;4.23;1.07;;;;;;;;;;4936769;28;20192;-76
2021/10/01 06:35:00;;;;;;;2.00;1.50;;;;;;;;;;4937682;28;20423;-73
2021/10/01 06:37:25;;;;;;;4.40;1.13;;;;;;;;;;4933270;28;20509;-74
2021/10/01 06:39:51;;;;;;;3.30;1.30;;;;;;;;;;4937783;28;20191;-74
2021/10/01 06:42:17;;;;;;;3.67;1.20;;;;;;;;;;4932989;28;20192;-74
2021/10/01 06:44:45;;;;;;;5.30;1.27;;;;;;;;;;4933633;28;20191;-74
2021/10/01 06:47:16;;;;;;;6.23;1.50;;;;;;;;;;4937843;28;25183;-75
2021/10/01 06:50:31;;;;;;;1.97;1.20;;;;;;;;;;4936397;29;20435;-73
2021/10/01 07:20:45;;;;;;;4.63;1.40;;;;;;;;;;4940870;28;20432;-73
2021/10/01 08:19:42;;;;;;;4.10;1.43;;;;;;;;;;4939224;28;25175;-75
2021/10/01 08:22:09;;;;;;;3.43;1.80;;;;;;;;;;4935070;28;25118;-73
2021/10/01 08:24:35;;;;;;;3.10;1.50;;;;;;;;;;4935558;28;25095;-74
2021/10/01 08:27:00;;;;;;;2.57;1.47;;;;;;;;;;4936906;28;22252;-75
2021/10/01 08:29:26;;;;;;;8.47;1.80;;;;;;;;;;4934928;28;20446;-73
2021/10/01 08:31:53;;;;;;;6.43;1.73;;;;;;;;;;4928445;28;20215;-73
2021/10/01 08:34:20;;;;;;;5.53;1.60;;;;;;;;;;4932347;28;20187;-74
2021/10/01 08:36:45;;;;;;;5.13;1.40;;;;;;;;;;4935007;28;20537;-73
2021/10/01 08:39:11;;;;;;;6.10;1.60;;;;;;;;;;4938151;28;20470;-73
2021/10/01 08:41:36;;;;;;;8.37;1.57;;;;;;;;;;4937260;28;20643;-73
2021/10/01 08:44:02;;;;;;;7.87;1.80;;;;;;;;;;4932873;28;20203;-73
2021/10/01 08:46:29;;;;;;;5.80;1.67;;;;;;;;;;4931484;28;20238;-74
2021/10/01 08:48:55;;;;;;;3.73;1.43;;;;;;;;;;4936706;28;20739;-75
2021/10/01 08:51:20;;;;;;;4.30;2.30;;;;;;;;;;4935706;28;20471;-73
2021/10/01 08:53:47;;;;;;;8.90;3.13;;;;;;;;;;4935596;28;20288;-75
2021/10/01 08:56:12;;;;;;;10.73;3.10;;;;;;;;;;4930088;28;20198;-73
2021/10/01 08:58:37;;;;;;;5.97;3.00;;;;;;;;;;4931169;28;20836;-73
2021/10/01 09:01:03;;;;;;;5.63;1.60;;;;;;;;;;4928448;28;20187;-73
2021/10/01 09:03:28;;;;;;;5.43;1.50;;;;;;;;;;4934143;28;20678;-73
2021/10/01 09:05:54;;;;;;;6.73;1.77;;;;;;;;;;4937756;28;20191;-72
2021/10/01 09:08:21;;;;;;;8.93;2.00;;;;;;;;;;4934795;28;20294;-74
2021/10/01 09:11:15;;;;;;;5.43;1.57;;;;;;;;;;4933247;28;20194;-73
2021/10/01 09:13:41;;;;;;;9.27;1.97;;;;;;;;;;4934106;28;20861;-74
2021/10/01 09:16:08;;;;;;;5.87;2.20;;;;;;;;;;4929118;28;20443;-74
2021/10/01 09:18:37;;;;;;;3.87;1.40;;;;;;;;;;4934143;28;20446;-74
2021/10/01 09:21:06;;;;;;;4.67;1.67;;;;;;;;;;4933690;28;20525;-73
2021/10/01 09:23:33;;;;;;;3.67;1.40;;;;;;;;;;4949547;28;20442;-73
2021/10/01 09:26:06;;;;;;;9.83;2.13;;;;;;;;;;4933270;28;20529;-73
2021/10/01 09:28:51;;;;;;;3.23;1.33;;;;;;;;;;4934047;28;20520;-73
2021/10/01 09:31:30;;;;;;;3.43;1.40;;;;;;;;;;4935566;28;20428;-74
2021/10/01 09:33:55;;;;;;;6.27;1.60;;;;;;;;;;4936887;28;20427;-75
2021/10/01 09:36:21;;;;;;;7.60;1.33;;;;;;;;;;4938493;28;20461;-73
2021/10/01 09:38:46;;;;;;;6.00;1.50;;;;;;;;;;4935419;28;20195;-73
2021/10/01 09:41:16;;;;;;;4.10;1.60;;;;;;;;;;4937796;28;20191;-74
2021/10/01 09:43:42;;;;;;;6.30;2.07;;;;;;;;;;4936917;28;20215;-73
2021/10/01 09:46:09;;;;;;;7.63;1.73;;;;;;;;;;4933409;28;20474;-73
2021/10/01 09:48:36;;;;;;;4.67;1.80;;;;;;;;;;4928910;28;20203;-75
2021/10/01 09:51:08;;;;;;;6.20;2.00;;;;;;;;;;4930214;28;20872;-72
2021/10/01 09:53:46;;;;;;;8.20;1.40;;;;;;;;;;4935825;28;20445;-73
2021/10/01 09:56:22;;;;;;;3.50;0.90;;;;;;;;;;4928675;28;20438;-72
2021/10/01 09:59:03;;;;;;;7.07;1.73;;;;;;;;;;4935349;28;20438;-72
2021/10/01 10:01:28;;;;;;;7.70;1.87;;;;;;;;;;4936367;28;20435;-72
2021/10/01 10:03:53;;;;;;;6.40;1.47;;;;;;;;;;4937400;28;20435;-73
2021/10/01 10:06:19;;;;;;;8.37;1.70;;;;;;;;;;4935159;28;20278;-73
2021/10/01 10:08:45;;;;;;;5.33;1.50;;;;;;;;;;4935727;28;20227;-73
2021/10/01 10:11:15;;;;;;;4.63;1.30;;;;;;;;;;4935672;28;20237;-73
2021/10/01 10:13:52;;;;;;;5.40;1.70;;;;;;;;;;4928888;28;20439;-73
2021/10/01 10:16:17;;;;;;;6.93;1.67;;;;;;;;;;4934418;28;20471;-73
2021/10/01 10:18:43;;;;;;;7.40;1.67;;;;;;;;;;4936525;28;20466;-73
2021/10/01 10:21:09;;;;;;;11.47;1.40;;;;;;;;;;4932031;28;20655;-74
2021/10/01 10:23:34;;;;;;;4.10;1.70;;;;;;;;;;4931980;28;20450;-73
2021/10/01 10:26:00;;;;;;;7.27;1.43;;;;;;;;;;4916626;28;20816;-73
2021/10/01 10:28:25;;;;;;;3.33;1.73;;;;;;;;;;4930575;28;20195;-73
2021/10/01 10:30:51;;;;;;;3.90;1.47;;;;;;;;;;4934292;28;20210;-72
2021/10/01 10:33:36;;;;;;;3.43;1.30;;;;;;;;;;4934576;28;20183;-73
2021/10/01 10:36:21;;;;;;;6.20;1.53;;;;;;;;;;4921940;28;20447;-73
2021/10/01 10:38:46;;;;;;;6.40;1.30;;;;;;;;;;4936156;28;20458;-72
2021/10/01 10:41:27;;;;;;;5.40;1.20;;;;;;;;;;4934513;28;21012;-73
2021/10/01 10:43:53;;;;;;;6.30;1.30;;;;;;;;;;4931631;28;20567;-72
2021/10/01 10:46:36;;;;;;;5.73;1.47;;;;;;;;;;4935200;28;20484;-73
2021/10/01 10:49:13;;;;;;;3.50;1.20;;;;;;;;;;4938393;28;20544;-73
2021/10/01 10:51:57;;;;;;;8.67;1.90;;;;;;;;;;4939246;28;20434;-72
2021/10/01 10:54:22;;;;;;;1.70;1.07;;;;;;;;;;4942405;29;20426;-72
2021/10/01 10:57:07;;;;;;;5.77;1.33;;;;;;;;;;4936705;28;20586;-73
2021/10/01 10:59:32;;;;;;;5.00;1.27;;;;;;;;;;4940243;28;20183;-73
2021/10/01 11:02:16;;;;;;;7.33;1.50;;;;;;;;;;4940912;28;20477;-73
2021/10/01 11:04:41;;;;;;;3.50;1.13;;;;;;;;;;4934274;28;20195;-72
2021/10/01 11:07:07;;;;;;;2.50;1.10;;;;;;;;;;4934059;28;20865;-73
2021/10/01 11:09:34;;;;;;;3.93;1.70;;;;;;;;;;4939138;28;20653;-73
2021/10/01 11:12:00;;;;;;;2.30;1.53;;;;;;;;;;4937264;28;20462;-72
2021/10/01 11:14:26;;;;;;;4.53;1.57;;;;;;;;;;4934688;28;21105;-73
2021/10/01 11:16:53;;;;;;;5.93;1.20;;;;;;;;;;4936466;28;20208;-72
2021/10/01 11:19:37;;;;;;;4.63;1.60;;;;;;;;;;4937018;28;20438;-72
2021/10/01 11:22:21;;;;;;;4.03;1.10;;;;;;;;;;4939429;28;20438;-73
2021/10/01 11:24:47;;;;;;;3.20;1.10;;;;;;;;;;4940126;28;20477;-72
2021/10/01 11:27:12;;;;;;;1.93;1.10;;;;;;;;;;4939434;28;21682;-72
2021/10/01 11:29:37;;;;;;;4.53;1.20;;;;;;;;;;4939437;28;20179;-72
2021/10/01 11:32:03;;;;;;;3.37;1.30;;;;;;;;;;4935869;28;20644;-73
2021/10/01 11:34:41;;;;;;;2.93;1.30;;;;;;;;;;4929491;28;20211;-72
2021/10/01 11:37:23;;;;;;;3.77;1.20;;;;;;;;;;4935594;28;20210;-73
2021/10/01 11:39:49;;;;;;;5.70;1.30;;;;;;;;;;4934848;28;20506;-72
2021/10/01 11:42:24;;;;;;;8.77;1.50;;;;;;;;;;4936959;28;27706;-73
2021/10/01 11:44:49;;;;;;;2.53;1.20;;;;;;;;;;4935117;28;20703;-74
2021/10/01 11:47:15;;;;;;;5.47;1.20;;;;;;;;;;4936561;28;20557;-73
2021/10/01 11:49:41;;;;;;;7.73;1.50;;;;;;;;;;4934211;28;20275;-73
2021/10/01 11:52:12;;;;;;;5.80;1.33;;;;;;;;;;4936186;28;20186;-73
2021/10/01 11:54:47;;;;;;;7.43;1.67;;;;;;;;;;4935025;28;20172;-73
2021/10/01 11:57:13;;;;;;;5.07;1.40;;;;;;;;;;4934121;28;20477;-73
2021/10/01 11:59:48;;;;;;;1.90;0.93;;;;;;;;;;4936305;28;20431;-73
2021/10/01 12:02:29;;;;;;;4.83;1.27;;;;;;;;;;4948327;23;20406;-76
2021/10/01 12:04:55;;;;;;;3.00;1.20;;;;;;;;;;4917715;29;20458;-77
2021/10/01 12:07:20;;;;;;;6.23;1.50;;;;;;;;;;4934649;28;20480;-77
2021/10/01 12:10:05;;;;;;;4.27;1.20;;;;;;;;;;4938214;28;20176;-78
2021/10/01 12:12:31;;;;;;;5.00;1.47;;;;;;;;;;4924386;28;21214;-77
2021/10/01 12:14:56;;;;;;;4.40;1.10;;;;;;;;;;4906304;29;20432;-77
2021/10/01 12:17:21;;;;;;;5.30;1.73;;;;;;;;;;4905524;29;20690;-77
2021/10/01 12:19:46;;;;;;;3.80;1.23;;;;;;;;;;4890724;29;20238;-78
2021/10/01 12:22:14;;;;;;;3.53;1.43;;;;;;;;;;4909038;29;20259;-77
2021/10/01 12:24:42;;;;;;;6.20;1.83;;;;;;;;;;4908529;29;20733;-77
2021/10/01 12:27:07;;;;;;;9.00;0.90;;;;;;;;;;4908522;29;20592;-78
2021/10/01 12:29:40;;;;;;;9.13;1.50;;;;;;;;;;4910561;29;21257;-79
2021/10/01 12:32:05;;;;;;;4.40;1.20;;;;;;;;;;4903825;29;20193;-77
2021/10/01 12:34:32;;;;;;;4.70;1.40;;;;;;;;;;4907843;29;20436;-78
2021/10/01 12:37:08;;;;;;;5.23;1.80;;;;;;;;;;4908466;29;20199;-78
2021/10/01 12:39:34;;;;;;;5.97;1.17;;;;;;;;;;4905192;29;20939;-78
2021/10/01 12:42:00;;;;;;;2.10;1.17;;;;;;;;;;4906024;29;20446;-79
2021/10/01 12:44:26;;;;;;;14.50;1.60;;;;;;;;;;4919310;29;20545;-77
2021/10/01 12:46:52;;;;;;;5.50;1.40;;;;;;;;;;4903108;29;20483;-78
2021/10/01 12:49:17;;;;;;;4.47;1.50;;;;;;;;;;4910960;29;20180;-80
2021/10/01 12:51:43;;;;;;;3.33;1.47;;;;;;;;;;4911305;29;20563;-78
2021/10/01 12:54:26;;;;;;;2.80;1.20;;;;;;;;;;4913093;29;20205;-79
2021/10/01 12:57:10;;;;;;;2.97;1.20;;;;;;;;;;4902208;29;20555;-79
2021/10/01 12:59:39;;;;;;;5.67;1.83;;;;;;;;;;4908384;29;20452;-80
2021/10/01 13:02:12;;;;;;;3.40;1.40;;;;;;;;;;4912765;29;20439;-77
2021/10/01 13:05:07;;;;;;;5.17;1.23;;;;;;;;;;4907815;29;20435;-77
2021/10/01 13:07:33;;;;;;;6.70;1.47;;;;;;;;;;4906772;29;20468;-77
2021/10/01 13:10:17;;;;;;;9.80;1.63;;;;;;;;;;4911495;29;20439;-77
2021/10/01 13:12:51;;;;;;;3.47;1.33;;;;;;;;;;4914068;29;20956;-79
2021/10/01 13:15:18;;;;;;;5.50;1.53;;;;;;;;;;4906743;29;20843;-78
2021/10/01 13:17:59;;;;;;;4.83;2.00;;;;;;;;;;4911979;29;20444;-78
2021/10/01 13:20:28;;;;;;;11.53;1.80;;;;;;;;;;4901874;29;20949;-77
2021/10/01 13:23:02;;;;;;;4.37;1.70;;;;;;;;;;4910740;29;20460;-78
2021/10/01 13:25:29;;;;;;;2.40;1.20;;;;;;;;;;4913012;29;20924;-77
2021/10/01 13:27:55;;;;;;;5.13;3.10;;;;;;;;;;4906517;29;20474;-76
2021/10/01 13:30:21;;;;;;;7.87;3.50;;;;;;;;;;4911158;29;20431;-79
2021/10/01 13:32:47;;;;;;;6.57;3.33;;;;;;;;;;4905048;29;20460;-77
2021/10/01 13:35:14;;;;;;;4.83;3.30;;;;;;;;;;4912232;29;20436;-76
2021/10/01 13:37:39;;;;;;;7.30;1.80;;;;;;;;;;4909947;29;20192;-78
2021/10/01 13:40:05;;;;;;;3.90;1.87;;;;;;;;;;4910589;29;20540;-78
2021/10/01 13:42:30;;;;;;;2.20;1.53;;;;;;;;;;4913794;29;20207;-78
2021/10/01 13:44:55;;;;;;;4.50;1.70;;;;;;;;;;4909341;29;20219;-76
2021/10/01 13:47:20;;;;;;;5.97;2.10;;;;;;;;;;4911351;29;20698;-76
2021/10/01 13:49:46;;;;;;;2.30;1.33;;;;;;;;;;4914113;29;20628;-76
2021/10/01 13:52:11;;;;;;;3.27;1.60;;;;;;;;;;4911487;29;20235;-77
2021/10/01 13:54:36;;;;;;;3.50;1.73;;;;;;;;;;4911873;29;20185;-76
2021/10/01 13:57:02;;;;;;;4.93;1.63;;;;;;;;;;4912376;29;20188;-77
2021/10/01 13:59:29;;;;;;;3.33;1.60;;;;;;;;;;4912733;29;20229;-76
2021/10/01 14:01:55;;;;;;;4.00;2.03;;;;;;;;;;4909290;29;20708;-75
2021/10/01 14:04:21;;;;;;;6.53;2.17;;;;;;;;;;4900875;29;20463;-76
2021/10/01 14:06:48;;;;;;;4.30;1.80;;;;;;;;;;4899992;29;20216;-77
2021/10/01 14:09:14;;;;;;;4.20;1.43;;;;;;;;;;4905548;29;20536;-77
2021/10/01 14:11:39;;;;;;;3.70;1.43;;;;;;;;;;4905475;29;21142;-76
2021/10/01 14:14:04;;;;;;;5.73;1.43;;;;;;;;;;4907613;29;20212;-77
2021/10/01 14:16:30;;;;;;;5.53;1.77;;;;;;;;;;4915796;29;20243;-77
2021/10/01 14:18:55;;;;;;;6.97;1.67;;;;;;;;;;4894969;29;20193;-76
2021/10/01 14:21:20;;;;;;;8.50;2.07;;;;;;;;;;4901072;29;20653;-76
2021/10/01 14:23:46;;;;;;;5.10;1.60;;;;;;;;;;4900393;29;20216;-76
2021/10/01 14:26:11;;;;;;;3.63;1.33;;;;;;;;;;4888959;29;20188;-76
2021/10/01 14:28:36;;;;;;;3.73;1.60;;;;;;;;;;4904488;29;20188;-77
2021/10/01 14:31:01;;;;;;;2.23;1.27;;;;;;;;;;4899994;29;20199;-78
2021/10/01 14:33:27;;;;;;;5.10;1.53;;;;;;;;;;4903978;29;20200;-76
2021/10/01 14:35:53;;;;;;;7.13;1.60;;;;;;;;;;4901245;29;21745;-77
2021/10/01 14:38:19;;;;;;;5.27;1.80;;;;;;;;;;4902504;29;20180;-76
2021/10/01 14:40:45;;;;;;;9.60;1.80;;;;;;;;;;4892453;29;20908;-77
2021/10/01 14:43:10;;;;;;;6.30;1.60;;;;;;;;;;4903699;29;20201;-78
2021/10/01 14:45:35;;;;;;;4.77;2.10;;;;;;;;;;4906110;29;21263;-77
2021/10/01 14:48:01;;;;;;;5.70;1.50;;;;;;;;;;4900852;29;20218;-78
2021/10/01 14:50:26;;;;;;;4.93;1.60;;;;;;;;;;4903911;29;20192;-78
2021/10/01 14:52:51;;;;;;;3.33;1.63;;;;;;;;;;4917169;29;20200;-77
2021/10/01 14:55:17;;;;;;;4.07;2.13;;;;;;;;;;4906445;29;20251;-79
2021/10/01 14:57:42;;;;;;;3.80;1.47;;;;;;;;;;4908194;29;20184;-78
2021/10/01 15:00:08;;;;;;;4.33;1.37;;;;;;;;;;4919104;29;20188;-79
2021/10/01 15:02:33;;;;;;;8.20;1.70;;;;;;;;;;4907005;29;20300;-78
2021/10/01 15:04:58;;;;;;;5.27;1.57;;;;;;;;;;4904221;29;20447;-77
2021/10/01 15:07:23;;;;;;;7.13;1.87;;;;;;;;;;4906565;29;20222;-77
2021/10/01 15:09:49;;;;;;;7.20;1.83;;;;;;;;;;4905510;29;20200;-79
2021/10/01 15:12:14;;;;;;;7.90;2.00;;;;;;;;;;4907545;29;20280;-77
2021/10/01 15:14:39;;;;;;;6.43;1.80;;;;;;;;;;4918707;29;21129;-78
2021/10/01 15:17:05;;;;;;;4.27;1.50;;;;;;;;;;4904948;29;20177;-77
2021/10/01 15:19:30;;;;;;;9.37;2.03;;;;;;;;;;4909930;29;20195;-78
2021/10/01 15:21:55;;;;;;;4.47;1.60;;;;;;;;;;4918692;29;20176;-78
2021/10/01 15:24:21;;;;;;;4.17;1.23;;;;;;;;;;4909828;29;20565;-75
2021/10/01 15:26:46;;;;;;;5.50;1.53;;;;;;;;;;4908587;29;20680;-77
2021/10/01 15:29:12;;;;;;;5.57;1.60;;;;;;;;;;4911551;29;20204;-77
2021/10/01 15:31:37;;;;;;;3.10;1.40;;;;;;;;;;4906769;29;20177;-77
2021/10/01 15:34:03;;;;;;;4.00;1.53;;;;;;;;;;4911828;29;20467;-77
2021/10/01 15:36:29;;;;;;;5.00;1.17;;;;;;;;;;4905670;29;20186;-79
2021/10/01 15:38:54;;;;;;;6.53;1.20;;;;;;;;;;4906801;29;20666;-77
2021/10/01 15:41:20;;;;;;;5.10;1.60;;;;;;;;;;4909607;29;20480;-77
2021/10/01 15:43:45;;;;;;;3.37;1.77;;;;;;;;;;4911325;29;20691;-76
2021/10/01 15:46:11;;;;;;;4.80;1.67;;;;;;;;;;4910776;29;20230;-77
2021/10/01 15:48:37;;;;;;;4.93;1.67;;;;;;;;;;4909290;29;20447;-78
2021/10/01 15:51:04;;;;;;;2.80;1.37;;;;;;;;;;4912952;29;20199;-77
2021/10/01 15:53:29;;;;;;;2.57;1.57;;;;;;;;;;4898238;29;20464;-76
2021/10/01 15:55:54;;;;;;;2.80;1.50;;;;;;;;;;4910453;29;20452;-78
2021/10/01 15:58:19;;;;;;;7.17;1.97;;;;;;;;;;4911744;29;20195;-78
2021/10/01 16:00:45;;;;;;;5.10;1.57;;;;;;;;;;4909335;29;20720;-77
2021/10/01 16:03:11;;;;;;;4.83;1.40;;;;;;;;;;4914589;29;20220;-77
2021/10/01 16:05:36;;;;;;;4.37;1.13;;;;;;;;;;4902108;29;20689;-77
2021/10/01 16:08:02;;;;;;;4.90;1.27;;;;;;;;;;4913542;29;20212;-76
2021/10/01 16:10:28;;;;;;;2.67;1.10;;;;;;;;;;4912745;29;20796;-77
2021/10/01 16:12:56;;;;;;;4.73;1.23;;;;;;;;;;4915843;29;20680;-77
2021/10/01 16:15:21;;;;;;;7.17;1.47;;;;;;;;;;4911675;29;20614;-78